Aviation Digital Data Service (ADDS)

Output produced by METARs form (1326 UTC 24 October 2014)
found at http://www.aviationweather.gov/adds/metars/
 
KCRQ 241253Z 00000KT 10SM CLR 16/08 A2995 RMK AO2 SLP139 T01610078
KCRQ 241153Z 00000KT 10SM CLR 16/08 A2995 RMK AO2 SLP140 T01610078 10189 20156 55001
KCRQ 241053Z 00000KT 10SM CLR 16/08 A2994 RMK AO2 SLP137 T01560078
KCRQ 241135Z 2412/2512 VRB04KT P6SM SKC 
     FM242000 27007KT P6SM SKC 
     FM250000 VRB04KT P6SM SKC 
     FM251000 VRB04KT P6SM VCFG SCT004